Time;durP1;ratioP1;P1;durP2;ratioP2;P2;SDS_P1;SDS_P2;PMS_P1;PMS_P2;Temp;Humidity;BMP_temperature;BMP_pressure;BME280_temperature;BME280_humidity;BME280_pressure;Samples;Min_cycle;Max_cycle;Signal;HPM_P1;HPM_P2
2023/12/17 00:01:27;;;;;;;6.50;5.13;;;;;;;;;;5029875;28;20041;-87
2023/12/17 00:03:53;;;;;;;15.15;7.75;;;;;;;;;;5045161;28;20049;-81
2023/12/17 00:06:19;;;;;;;13.82;8.00;;;;;;;;;;5029123;28;20037;-82
2023/12/17 00:08:45;;;;;;;16.05;8.05;;;;;;;;;;5043672;28;20114;-81
2023/12/17 00:11:12;;;;;;;19.88;8.52;;;;;;;;;;5038768;28;20049;-83
2023/12/17 00:13:38;;;;;;;16.50;8.02;;;;;;;;;;5044830;28;20033;-84
2023/12/17 00:16:05;;;;;;;20.05;9.02;;;;;;;;;;5039532;28;20040;-81
2023/12/17 00:18:31;;;;;;;17.63;8.52;;;;;;;;;;5040903;28;20041;-80
2023/12/17 00:20:57;;;;;;;16.92;9.07;;;;;;;;;;5055420;28;20040;-83
2023/12/17 00:23:23;;;;;;;15.65;8.30;;;;;;;;;;5058737;28;20500;-81
2023/12/17 00:25:49;;;;;;;16.25;8.68;;;;;;;;;;5030273;28;20040;-83
2023/12/17 00:28:15;;;;;;;18.13;8.13;;;;;;;;;;5022304;28;20046;-82
2023/12/17 00:30:41;;;;;;;13.32;7.80;;;;;;;;;;5034892;28;20102;-78
2023/12/17 00:33:07;;;;;;;20.33;8.73;;;;;;;;;;5037374;28;20128;-81
2023/12/17 00:35:33;;;;;;;15.52;8.48;;;;;;;;;;5029319;28;20036;-82
2023/12/17 00:37:59;;;;;;;16.38;7.88;;;;;;;;;;5048971;28;21598;-78
2023/12/17 00:40:25;;;;;;;15.13;8.15;;;;;;;;;;5044807;28;20064;-82
2023/12/17 00:42:51;;;;;;;11.23;7.72;;;;;;;;;;5047667;28;20506;-83
2023/12/17 00:45:17;;;;;;;19.48;8.55;;;;;;;;;;5046788;28;20580;-83
2023/12/17 00:47:43;;;;;;;20.88;8.25;;;;;;;;;;5042778;28;20095;-83
2023/12/17 00:50:10;;;;;;;14.45;8.65;;;;;;;;;;5045058;28;20114;-83
2023/12/17 00:52:36;;;;;;;11.80;7.43;;;;;;;;;;5045936;28;20058;-82
2023/12/17 00:55:02;;;;;;;13.48;7.72;;;;;;;;;;5043015;28;20061;-83
2023/12/17 00:57:28;;;;;;;20.48;8.50;;;;;;;;;;5058227;28;20373;-83
2023/12/17 00:59:54;;;;;;;14.95;7.60;;;;;;;;;;5044251;28;20045;-83
2023/12/17 01:02:20;;;;;;;12.15;7.85;;;;;;;;;;5062194;28;20044;-83
2023/12/17 01:04:46;;;;;;;13.63;8.13;;;;;;;;;;5043347;28;20039;-83
2023/12/17 01:07:12;;;;;;;17.95;8.43;;;;;;;;;;5073201;28;20398;-82
2023/12/17 01:09:38;;;;;;;12.43;8.05;;;;;;;;;;5043256;28;20051;-80
2023/12/17 01:12:05;;;;;;;20.08;7.47;;;;;;;;;;5043739;28;20134;-81
2023/12/17 01:14:34;;;;;;;13.82;8.25;;;;;;;;;;5061744;28;20048;-82
2023/12/17 01:17:01;;;;;;;13.55;7.93;;;;;;;;;;5058581;28;20568;-83
2023/12/17 01:19:27;;;;;;;19.25;8.10;;;;;;;;;;5058694;28;20486;-83
2023/12/17 01:21:53;;;;;;;15.50;9.10;;;;;;;;;;5081050;28;20505;-83
2023/12/17 01:24:19;;;;;;;18.08;8.15;;;;;;;;;;5028912;28;20044;-82
2023/12/17 01:26:45;;;;;;;15.73;8.23;;;;;;;;;;5079469;28;20044;-82
2023/12/17 01:29:11;;;;;;;16.77;8.25;;;;;;;;;;5064767;28;20119;-82
2023/12/17 01:31:37;;;;;;;14.65;8.02;;;;;;;;;;5058752;28;20197;-82
2023/12/17 01:34:03;;;;;;;14.00;8.15;;;;;;;;;;5062604;28;20056;-82
2023/12/17 01:36:29;;;;;;;16.38;8.23;;;;;;;;;;5061536;28;20037;-81
2023/12/17 01:38:55;;;;;;;16.75;8.10;;;;;;;;;;5045299;28;20036;-81
2023/12/17 01:41:22;;;;;;;10.02;6.35;;;;;;;;;;5061931;28;20041;-81
2023/12/17 01:43:48;;;;;;;12.13;7.90;;;;;;;;;;5063721;28;20046;-82
2023/12/17 01:46:14;;;;;;;14.77;7.28;;;;;;;;;;5034459;28;20075;-82
2023/12/17 01:48:41;;;;;;;16.17;7.95;;;;;;;;;;5064293;28;20048;-82
2023/12/17 01:51:07;;;;;;;17.48;7.97;;;;;;;;;;5032084;28;20416;-82
2023/12/17 01:53:34;;;;;;;15.18;7.25;;;;;;;;;;5060341;28;20051;-83
2023/12/17 01:56:00;;;;;;;10.70;8.20;;;;;;;;;;5048421;28;20412;-82
2023/12/17 01:58:27;;;;;;;13.05;7.07;;;;;;;;;;5047883;28;20049;-83
2023/12/17 02:00:54;;;;;;;14.32;7.50;;;;;;;;;;5081907;28;20131;-83
2023/12/17 02:03:20;;;;;;;16.20;7.20;;;;;;;;;;5049969;28;20495;-83
2023/12/17 02:05:46;;;;;;;13.80;7.22;;;;;;;;;;5048080;28;20051;-82
2023/12/17 02:08:13;;;;;;;13.43;6.22;;;;;;;;;;5049309;28;20037;-84
2023/12/17 02:10:39;;;;;;;17.90;7.95;;;;;;;;;;5046812;28;20514;-83
2023/12/17 02:13:09;;;;;;;12.52;7.15;;;;;;;;;;5047389;28;20074;-84
2023/12/17 02:15:35;;;;;;;16.75;7.65;;;;;;;;;;5047516;28;20395;-83
2023/12/17 02:18:01;;;;;;;12.75;5.95;;;;;;;;;;5032699;28;20044;-84
2023/12/17 02:20:27;;;;;;;15.27;7.90;;;;;;;;;;5058941;28;20087;-83
2023/12/17 02:22:56;;;;;;;15.15;7.55;;;;;;;;;;5052985;28;20036;-81
2023/12/17 02:25:22;;;;;;;16.95;7.80;;;;;;;;;;5078775;28;20502;-84
2023/12/17 02:27:48;;;;;;;11.90;7.22;;;;;;;;;;5063314;28;20048;-83
2023/12/17 02:30:14;;;;;;;12.80;7.32;;;;;;;;;;5078605;28;20445;-83
2023/12/17 02:32:40;;;;;;;15.52;7.28;;;;;;;;;;5081437;28;20060;-85
2023/12/17 02:35:06;;;;;;;13.20;7.65;;;;;;;;;;5049675;28;20040;-84
2023/12/17 02:37:32;;;;;;;14.20;7.45;;;;;;;;;;5036614;28;20134;-84
2023/12/17 02:39:58;;;;;;;10.38;6.68;;;;;;;;;;5085986;28;20040;-84
2023/12/17 02:42:24;;;;;;;13.15;7.55;;;;;;;;;;5049635;28;20443;-83
2023/12/17 02:44:50;;;;;;;12.45;6.55;;;;;;;;;;5030055;28;20085;-84
2023/12/17 02:47:17;;;;;;;9.73;6.53;;;;;;;;;;5030928;28;20040;-83
2023/12/17 02:49:43;;;;;;;15.95;6.63;;;;;;;;;;5047855;28;20239;-84
2023/12/17 02:52:09;;;;;;;10.40;5.55;;;;;;;;;;5043803;28;20044;-84
2023/12/17 02:54:35;;;;;;;10.32;7.03;;;;;;;;;;5064685;28;20098;-84
2023/12/17 02:57:01;;;;;;;10.88;6.70;;;;;;;;;;5081013;28;20036;-82
2023/12/17 02:59:27;;;;;;;9.88;6.25;;;;;;;;;;5063435;28;20118;-80
2023/12/17 03:01:53;;;;;;;8.35;6.28;;;;;;;;;;5031368;28;20072;-82
2023/12/17 03:04:19;;;;;;;12.55;6.22;;;;;;;;;;5038944;28;20055;-76
2023/12/17 03:06:46;;;;;;;13.75;6.95;;;;;;;;;;5062604;28;20495;-76
2023/12/17 03:09:12;;;;;;;8.77;5.32;;;;;;;;;;5049338;28;20414;-77
2023/12/17 03:11:38;;;;;;;17.67;6.97;;;;;;;;;;5062848;28;20041;-76
2023/12/17 03:14:04;;;;;;;10.32;6.57;;;;;;;;;;5029504;28;20462;-79
2023/12/17 03:16:31;;;;;;;11.68;5.68;;;;;;;;;;5044640;28;20079;-76
2023/12/17 03:18:57;;;;;;;10.85;6.65;;;;;;;;;;5048285;28;20101;-79
2023/12/17 03:21:23;;;;;;;10.13;7.13;;;;;;;;;;5045871;28;20036;-76
2023/12/17 03:23:50;;;;;;;14.88;5.38;;;;;;;;;;5035527;28;20090;-80
2023/12/17 03:26:16;;;;;;;13.10;6.72;;;;;;;;;;5048023;28;20041;-79
2023/12/17 03:28:42;;;;;;;12.75;6.68;;;;;;;;;;5079157;28;20408;-77
2023/12/17 03:31:11;;;;;;;11.63;6.30;;;;;;;;;;5050087;28;20045;-77
2023/12/17 03:33:38;;;;;;;10.70;6.50;;;;;;;;;;5050378;28;20040;-76
2023/12/17 03:36:04;;;;;;;10.10;5.72;;;;;;;;;;5061878;28;20028;-77
2023/12/17 03:38:30;;;;;;;14.90;6.47;;;;;;;;;;5049461;28;20086;-80
2023/12/17 03:40:56;;;;;;;12.45;6.00;;;;;;;;;;5050886;28;20150;-78
2023/12/17 03:43:22;;;;;;;9.00;6.03;;;;;;;;;;5045884;28;20117;-81
2023/12/17 03:45:48;;;;;;;11.88;5.65;;;;;;;;;;5078504;28;20098;-83
2023/12/17 03:48:14;;;;;;;7.63;5.13;;;;;;;;;;5042893;28;20047;-84
2023/12/17 03:50:40;;;;;;;14.77;5.93;;;;;;;;;;5061867;28;20098;-84
2023/12/17 03:53:10;;;;;;;9.57;5.68;;;;;;;;;;5044501;28;20040;-77
2023/12/17 03:55:37;;;;;;;10.48;5.90;;;;;;;;;;5064384;28;20041;-76
2023/12/17 03:58:03;;;;;;;10.05;4.70;;;;;;;;;;5049441;28;20051;-77
2023/12/17 04:00:30;;;;;;;9.90;4.80;;;;;;;;;;5032270;28;20122;-77
2023/12/17 04:02:56;;;;;;;11.77;5.80;;;;;;;;;;5032695;28;20539;-77
2023/12/17 04:05:24;;;;;;;10.77;5.88;;;;;;;;;;5063170;28;20036;-77
2023/12/17 04:07:50;;;;;;;10.77;7.30;;;;;;;;;;5059899;28;21190;-76
2023/12/17 04:10:17;;;;;;;10.70;5.82;;;;;;;;;;5080793;28;20032;-78
2023/12/17 04:12:43;;;;;;;11.98;5.90;;;;;;;;;;5059359;28;20048;-77
2023/12/17 04:15:09;;;;;;;14.18;6.30;;;;;;;;;;5019946;28;20040;-85
2023/12/17 04:17:35;;;;;;;9.50;5.78;;;;;;;;;;5074763;28;20037;-83
2023/12/17 04:20:01;;;;;;;10.38;6.55;;;;;;;;;;5044468;28;20036;-84
2023/12/17 04:22:27;;;;;;;12.57;6.63;;;;;;;;;;5033065;28;20120;-81
2023/12/17 04:24:53;;;;;;;9.70;4.97;;;;;;;;;;5081491;28;20090;-81
2023/12/17 04:27:19;;;;;;;13.98;6.07;;;;;;;;;;5039977;28;20126;-81
2023/12/17 04:29:45;;;;;;;8.18;4.57;;;;;;;;;;5060926;28;20040;-82
2023/12/17 04:32:12;;;;;;;8.00;5.18;;;;;;;;;;5063742;28;20040;-83
2023/12/17 04:34:38;;;;;;;13.20;5.38;;;;;;;;;;5045553;28;20422;-81
2023/12/17 04:37:04;;;;;;;11.52;5.68;;;;;;;;;;5057367;28;20487;-83
2023/12/17 04:39:30;;;;;;;9.60;5.38;;;;;;;;;;5049047;28;20499;-84
2023/12/17 04:41:56;;;;;;;11.23;6.82;;;;;;;;;;5040207;28;20124;-83
2023/12/17 04:44:22;;;;;;;11.00;6.82;;;;;;;;;;5040356;28;20053;-83
2023/12/17 04:46:48;;;;;;;12.32;6.03;;;;;;;;;;5059274;28;20044;-78
2023/12/17 04:49:14;;;;;;;14.77;7.10;;;;;;;;;;5078050;28;20048;-84
2023/12/17 04:51:40;;;;;;;13.48;6.30;;;;;;;;;;5043692;28;21587;-83
2023/12/17 04:54:06;;;;;;;14.55;6.60;;;;;;;;;;5076601;28;20063;-82
2023/12/17 04:56:32;;;;;;;13.43;6.43;;;;;;;;;;5044991;28;20044;-84
2023/12/17 04:58:58;;;;;;;16.17;6.85;;;;;;;;;;5077296;28;20063;-82
2023/12/17 05:01:25;;;;;;;14.77;7.18;;;;;;;;;;5060160;28;20051;-81
2023/12/17 05:03:51;;;;;;;12.55;6.40;;;;;;;;;;5015791;28;20055;-84
2023/12/17 05:06:17;;;;;;;11.77;6.88;;;;;;;;;;5029820;28;20527;-84
2023/12/17 05:08:43;;;;;;;12.80;6.60;;;;;;;;;;5028145;28;20070;-79
2023/12/17 05:11:09;;;;;;;14.40;7.00;;;;;;;;;;5013340;28;20174;-84
2023/12/17 05:13:35;;;;;;;14.10;6.25;;;;;;;;;;5029106;28;20037;-84
2023/12/17 05:16:01;;;;;;;12.55;6.55;;;;;;;;;;5049543;28;20047;-83
2023/12/17 05:18:27;;;;;;;20.25;6.20;;;;;;;;;;5077300;28;20044;-78
2023/12/17 05:20:53;;;;;;;11.93;7.28;;;;;;;;;;5047251;28;20100;-80
2023/12/17 05:23:19;;;;;;;11.95;6.65;;;;;;;;;;5050529;28;20048;-77
2023/12/17 05:25:45;;;;;;;15.35;7.22;;;;;;;;;;5051131;28;20086;-76
2023/12/17 05:28:11;;;;;;;13.57;7.60;;;;;;;;;;5064214;28;20044;-76
2023/12/17 05:30:38;;;;;;;11.50;6.55;;;;;;;;;;5050438;28;20045;-76
2023/12/17 05:33:04;;;;;;;10.68;7.53;;;;;;;;;;5080885;28;20033;-75
2023/12/17 05:35:30;;;;;;;15.32;7.20;;;;;;;;;;5046691;28;20475;-76
2023/12/17 05:37:59;;;;;;;14.55;8.77;;;;;;;;;;5068511;28;20055;-77
2023/12/17 05:40:25;;;;;;;15.85;8.95;;;;;;;;;;5045074;28;20104;-76
2023/12/17 05:42:51;;;;;;;8.23;6.82;;;;;;;;;;5063694;28;20044;-76
2023/12/17 05:45:17;;;;;;;10.27;5.43;;;;;;;;;;5051859;28;20028;-77
2023/12/17 05:47:44;;;;;;;17.58;8.43;;;;;;;;;;5064123;28;20097;-78
2023/12/17 05:50:10;;;;;;;13.13;7.35;;;;;;;;;;5048528;28;20097;-77
2023/12/17 05:52:36;;;;;;;16.85;7.22;;;;;;;;;;5050153;28;20127;-75
2023/12/17 05:55:03;;;;;;;17.00;7.68;;;;;;;;;;5057839;28;20037;-76
2023/12/17 05:57:29;;;;;;;15.80;7.53;;;;;;;;;;5043059;28;20592;-79
2023/12/17 05:59:55;;;;;;;13.25;8.02;;;;;;;;;;5071161;28;20047;-75
2023/12/17 06:02:21;;;;;;;13.88;7.82;;;;;;;;;;5066836;28;20094;-76
2023/12/17 06:04:47;;;;;;;11.95;8.20;;;;;;;;;;5035131;28;20518;-75
2023/12/17 06:07:13;;;;;;;15.75;8.43;;;;;;;;;;5031546;28;20800;-77
2023/12/17 06:09:40;;;;;;;13.02;6.95;;;;;;;;;;5051738;28;20499;-75
2023/12/17 06:12:06;;;;;;;14.23;9.30;;;;;;;;;;5037956;28;20396;-75
2023/12/17 06:14:32;;;;;;;20.05;8.27;;;;;;;;;;5065175;28;20563;-75
2023/12/17 06:16:58;;;;;;;13.25;6.93;;;;;;;;;;5065120;28;20044;-79
2023/12/17 06:19:24;;;;;;;14.32;7.70;;;;;;;;;;5048511;28;20043;-75
2023/12/17 06:21:50;;;;;;;13.95;9.55;;;;;;;;;;5048597;28;20434;-75
2023/12/17 06:24:16;;;;;;;16.27;7.97;;;;;;;;;;5032469;28;20365;-76
2023/12/17 06:26:43;;;;;;;16.88;7.82;;;;;;;;;;5037819;28;20049;-76
2023/12/17 06:29:13;;;;;;;18.60;8.57;;;;;;;;;;5040605;28;20404;-77
2023/12/17 06:31:40;;;;;;;12.32;7.47;;;;;;;;;;5056005;28;20124;-75
2023/12/17 06:34:06;;;;;;;17.80;8.77;;;;;;;;;;5067957;28;20043;-85
2023/12/17 06:36:32;;;;;;;16.13;8.90;;;;;;;;;;5030763;28;20127;-84
2023/12/17 06:38:58;;;;;;;8.27;5.88;;;;;;;;;;5053501;28;20128;-83
2023/12/17 06:41:24;;;;;;;16.02;8.07;;;;;;;;;;5040444;28;20039;-79
2023/12/17 06:43:50;;;;;;;11.57;8.30;;;;;;;;;;5035461;28;20567;-83
2023/12/17 06:46:17;;;;;;;15.10;8.32;;;;;;;;;;5085607;28;20566;-83
2023/12/17 06:48:44;;;;;;;13.43;7.05;;;;;;;;;;5040322;28;20044;-83
2023/12/17 06:51:13;;;;;;;15.57;7.70;;;;;;;;;;5067686;28;20403;-81
2023/12/17 06:53:39;;;;;;;19.88;12.65;;;;;;;;;;5050629;28;20043;-82
2023/12/17 06:56:06;;;;;;;22.20;10.02;;;;;;;;;;5057201;28;20044;-82
2023/12/17 06:58:33;;;;;;;11.73;8.32;;;;;;;;;;5054129;28;20059;-80
2023/12/17 07:00:59;;;;;;;18.17;10.30;;;;;;;;;;5047516;28;20637;-81
2023/12/17 07:03:25;;;;;;;16.10;10.38;;;;;;;;;;5066516;28;20040;-82
2023/12/17 07:05:51;;;;;;;11.77;8.27;;;;;;;;;;5056085;28;20044;-83
2023/12/17 07:08:17;;;;;;;17.83;10.98;;;;;;;;;;5070668;28;20040;-80
2023/12/17 07:10:43;;;;;;;24.90;12.30;;;;;;;;;;5050084;28;20040;-82
2023/12/17 07:13:10;;;;;;;21.92;12.55;;;;;;;;;;5049289;28;20087;-81
2023/12/17 07:15:36;;;;;;;25.85;13.25;;;;;;;;;;5032979;28;20037;-83
2023/12/17 07:18:02;;;;;;;16.80;10.90;;;;;;;;;;5052242;28;20067;-83
2023/12/17 07:20:28;;;;;;;20.98;13.00;;;;;;;;;;5053716;28;20064;-84
2023/12/17 07:22:54;;;;;;;23.58;11.07;;;;;;;;;;5082241;28;20040;-80
2023/12/17 07:25:20;;;;;;;19.42;10.90;;;;;;;;;;5048871;28;20045;-83
2023/12/17 07:27:46;;;;;;;18.35;11.98;;;;;;;;;;5033348;28;20040;-78
2023/12/17 07:30:13;;;;;;;19.58;13.10;;;;;;;;;;5050935;28;20135;-83
2023/12/17 07:32:39;;;;;;;19.63;11.63;;;;;;;;;;5059581;28;20045;-83
2023/12/17 07:35:07;;;;;;;17.10;11.52;;;;;;;;;;5039244;28;20484;-84
2023/12/17 07:37:33;;;;;;;12.90;8.32;;;;;;;;;;5064180;28;20051;-83
2023/12/17 07:39:59;;;;;;;14.10;9.70;;;;;;;;;;5053620;28;20032;-83
2023/12/17 07:42:25;;;;;;;11.98;7.07;;;;;;;;;;5052026;28;20040;-81
2023/12/17 07:44:51;;;;;;;14.13;7.20;;;;;;;;;;5063952;28;20080;-76
2023/12/17 07:47:17;;;;;;;9.35;5.40;;;;;;;;;;5056241;28;20602;-76
2023/12/17 07:49:43;;;;;;;11.75;6.95;;;;;;;;;;5039099;28;20457;-76
2023/12/17 07:52:11;;;;;;;18.38;7.20;;;;;;;;;;5050972;28;20516;-78
2023/12/17 07:54:38;;;;;;;19.23;8.02;;;;;;;;;;5047758;28;20044;-76
2023/12/17 07:57:04;;;;;;;16.15;7.03;;;;;;;;;;5076572;28;20036;-76
2023/12/17 07:59:30;;;;;;;14.57;8.07;;;;;;;;;;5043248;28;20065;-76
2023/12/17 08:01:56;;;;;;;17.05;7.68;;;;;;;;;;5064556;28;20046;-76
2023/12/17 08:04:22;;;;;;;10.00;6.78;;;;;;;;;;5041903;28;20068;-77
2023/12/17 08:06:48;;;;;;;14.80;6.20;;;;;;;;;;5045226;28;20043;-77
2023/12/17 08:09:15;;;;;;;13.57;7.35;;;;;;;;;;5059719;28;20050;-78
2023/12/17 08:11:43;;;;;;;19.17;9.57;;;;;;;;;;5062561;28;20054;-75
2023/12/17 08:14:10;;;;;;;16.65;8.15;;;;;;;;;;5031063;28;20075;-75
2023/12/17 08:16:36;;;;;;;16.52;7.60;;;;;;;;;;5050562;28;20463;-76
2023/12/17 08:19:02;;;;;;;17.45;7.60;;;;;;;;;;5045192;28;20071;-75
2023/12/17 08:21:28;;;;;;;15.93;8.75;;;;;;;;;;5031268;28;20043;-75
2023/12/17 08:23:54;;;;;;;20.50;8.40;;;;;;;;;;5048332;28;20044;-76
2023/12/17 08:26:21;;;;;;;13.55;7.78;;;;;;;;;;5051217;28;20048;-77
2023/12/17 08:28:47;;;;;;;13.27;6.68;;;;;;;;;;5041964;28;20040;-75
2023/12/17 08:31:13;;;;;;;16.15;8.65;;;;;;;;;;5041004;28;20136;-75
2023/12/17 08:33:39;;;;;;;24.98;9.45;;;;;;;;;;5041501;28;20045;-79
2023/12/17 08:36:05;;;;;;;13.40;6.82;;;;;;;;;;5029678;28;20040;-76
2023/12/17 08:38:31;;;;;;;19.30;7.20;;;;;;;;;;5058268;28;20037;-77
2023/12/17 08:40:57;;;;;;;15.00;7.72;;;;;;;;;;5063969;28;20135;-76
2023/12/17 08:43:24;;;;;;;16.13;8.25;;;;;;;;;;5058836;28;20076;-76
2023/12/17 08:45:50;;;;;;;14.68;7.43;;;;;;;;;;5057596;28;20045;-76
2023/12/17 08:48:16;;;;;;;15.98;8.68;;;;;;;;;;5029493;28;20380;-76
2023/12/17 08:50:42;;;;;;;20.02;7.50;;;;;;;;;;5042311;28;20165;-77
2023/12/17 08:53:08;;;;;;;10.88;7.20;;;;;;;;;;5079442;28;20097;-76
2023/12/17 08:55:34;;;;;;;14.88;8.13;;;;;;;;;;5062128;28;20105;-75
2023/12/17 08:58:00;;;;;;;13.40;7.63;;;;;;;;;;5060735;28;20044;-76
2023/12/17 09:00:26;;;;;;;18.05;10.40;;;;;;;;;;5044823;28;20052;-79
2023/12/17 09:02:52;;;;;;;19.80;9.65;;;;;;;;;;5048607;28;20143;-77
2023/12/17 09:05:19;;;;;;;17.75;9.60;;;;;;;;;;5053847;28;20036;-76
2023/12/17 09:07:45;;;;;;;17.77;10.18;;;;;;;;;;5065493;28;20028;-76
2023/12/17 09:10:11;;;;;;;17.25;10.70;;;;;;;;;;5050185;28;20060;-77
2023/12/17 09:12:37;;;;;;;25.80;11.48;;;;;;;;;;5065723;28;20670;-76
2023/12/17 09:15:03;;;;;;;14.88;10.35;;;;;;;;;;5047282;28;20046;-77
2023/12/17 09:17:29;;;;;;;22.30;11.52;;;;;;;;;;5051722;28;20115;-80
2023/12/17 09:19:55;;;;;;;25.48;14.68;;;;;;;;;;5047762;28;20038;-76
2023/12/17 09:22:21;;;;;;;25.52;13.82;;;;;;;;;;5063148;28;20050;-79
2023/12/17 09:24:48;;;;;;;16.80;10.68;;;;;;;;;;5033617;28;20074;-75
2023/12/17 09:27:14;;;;;;;19.85;12.35;;;;;;;;;;5081787;28;20036;-76
2023/12/17 09:29:41;;;;;;;19.10;12.02;;;;;;;;;;5062032;28;20050;-75
2023/12/17 09:32:09;;;;;;;21.55;13.45;;;;;;;;;;5053105;28;20043;-77
2023/12/17 09:34:35;;;;;;;20.95;13.00;;;;;;;;;;5069751;28;20037;-76
2023/12/17 09:37:01;;;;;;;22.15;13.98;;;;;;;;;;5031621;28;20036;-79
2023/12/17 09:39:27;;;;;;;26.30;14.95;;;;;;;;;;5063610;28;20044;-79
2023/12/17 09:41:53;;;;;;;30.20;14.75;;;;;;;;;;5053510;28;20032;-76
2023/12/17 09:44:19;;;;;;;25.92;15.63;;;;;;;;;;5036564;28;20043;-75
2023/12/17 09:46:45;;;;;;;36.40;14.95;;;;;;;;;;5035902;28;20041;-76
2023/12/17 09:49:11;;;;;;;21.90;13.82;;;;;;;;;;5064761;28;20194;-79
2023/12/17 09:51:40;;;;;;;16.92;10.77;;;;;;;;;;5064441;28;20090;-76
2023/12/17 09:54:06;;;;;;;36.53;16.10;;;;;;;;;;5043110;28;20037;-76
2023/12/17 09:56:33;;;;;;;26.85;13.68;;;;;;;;;;5017390;28;20040;-76
2023/12/17 09:58:59;;;;;;;27.92;13.77;;;;;;;;;;5052976;28;20515;-76
2023/12/17 10:01:27;;;;;;;24.80;14.57;;;;;;;;;;5053019;28;20503;-75
2023/12/17 10:03:53;;;;;;;26.60;13.60;;;;;;;;;;5048275;28;20122;-78
2023/12/17 10:06:20;;;;;;;25.30;13.13;;;;;;;;;;5046117;28;20123;-75
2023/12/17 10:08:47;;;;;;;20.85;11.68;;;;;;;;;;5048381;28;20078;-79
2023/12/17 10:11:14;;;;;;;24.27;13.40;;;;;;;;;;5063599;28;20495;-76
2023/12/17 10:13:40;;;;;;;36.50;13.00;;;;;;;;;;5061822;28;20075;-75
2023/12/17 10:16:06;;;;;;;18.63;8.95;;;;;;;;;;5035622;28;20040;-77
2023/12/17 10:18:33;;;;;;;33.03;13.50;;;;;;;;;;5035127;28;20044;-74
2023/12/17 10:20:59;;;;;;;20.20;10.68;;;;;;;;;;5078062;28;20044;-75
2023/12/17 10:23:25;;;;;;;24.88;10.70;;;;;;;;;;5060420;28;20143;-75
2023/12/17 10:25:58;;;;;;;26.98;11.52;;;;;;;;;;5044458;28;20153;-78
2023/12/17 10:28:25;;;;;;;24.23;10.00;;;;;;;;;;5059928;28;20040;-75
2023/12/17 10:30:51;;;;;;;26.30;10.48;;;;;;;;;;5025991;28;20151;-75
2023/12/17 10:33:22;;;;;;;20.15;9.32;;;;;;;;;;5060768;28;20507;-76
2023/12/17 10:35:48;;;;;;;22.50;10.88;;;;;;;;;;5080071;28;20040;-76
2023/12/17 10:38:15;;;;;;;18.52;10.27;;;;;;;;;;5058298;28;20036;-76
2023/12/17 10:40:42;;;;;;;20.35;8.23;;;;;;;;;;5061012;28;20586;-75
2023/12/17 10:43:09;;;;;;;22.60;11.50;;;;;;;;;;5063185;28;20047;-77
2023/12/17 10:45:35;;;;;;;19.35;9.05;;;;;;;;;;5064988;28;20531;-76
2023/12/17 10:48:02;;;;;;;14.73;7.63;;;;;;;;;;5067858;28;20602;-77
2023/12/17 10:50:28;;;;;;;19.33;8.60;;;;;;;;;;5067078;28;20041;-77
2023/12/17 10:52:55;;;;;;;17.20;8.93;;;;;;;;;;5056672;28;20035;-76
2023/12/17 10:55:22;;;;;;;17.33;8.45;;;;;;;;;;5050362;28;20036;-76
2023/12/17 10:57:55;;;;;;;15.50;7.68;;;;;;;;;;5012437;28;1135715;-76
2023/12/17 11:00:22;;;;;;;22.33;10.07;;;;;;;;;;5080577;28;20043;-75
2023/12/17 11:02:50;;;;;;;19.15;8.63;;;;;;;;;;5067337;28;20093;-78
2023/12/17 11:05:16;;;;;;;25.88;12.20;;;;;;;;;;5061530;28;20040;-75
2023/12/17 11:07:43;;;;;;;27.13;12.88;;;;;;;;;;5065941;28;20052;-76
2023/12/17 11:10:15;;;;;;;26.52;13.57;;;;;;;;;;5050476;28;20036;-77
2023/12/17 11:12:48;;;;;;;24.27;12.52;;;;;;;;;;5051312;28;20517;-81
2023/12/17 11:15:14;;;;;;;27.90;14.30;;;;;;;;;;5047582;28;20047;-86
2023/12/17 11:17:42;;;;;;;20.85;12.05;;;;;;;;;;5046686;28;20479;-81
2023/12/17 11:20:08;;;;;;;23.40;14.52;;;;;;;;;;5031411;28;20044;-81
2023/12/17 11:22:36;;;;;;;30.58;17.30;;;;;;;;;;5051842;28;21928;-82
2023/12/17 11:25:03;;;;;;;34.33;16.17;;;;;;;;;;5048123;28;20063;-80
2023/12/17 11:27:31;;;;;;;29.20;16.63;;;;;;;;;;5036201;28;20044;-85
2023/12/17 11:29:57;;;;;;;26.48;15.60;;;;;;;;;;5063827;28;20043;-85
2023/12/17 11:32:27;;;;;;;36.95;19.38;;;;;;;;;;5046873;28;20048;-84
2023/12/17 11:34:54;;;;;;;24.52;14.32;;;;;;;;;;5062192;28;20146;-84
2023/12/17 11:37:21;;;;;;;26.27;16.88;;;;;;;;;;5053565;28;20055;-85
2023/12/17 11:39:51;;;;;;;22.73;14.02;;;;;;;;;;5064895;28;20079;-83
2023/12/17 11:42:19;;;;;;;23.70;15.20;;;;;;;;;;5031911;28;20032;-84
2023/12/17 11:44:45;;;;;;;19.90;12.18;;;;;;;;;;5031143;28;21159;-84
2023/12/17 11:47:15;;;;;;;21.13;13.68;;;;;;;;;;5051191;28;21793;-88
2023/12/17 11:49:42;;;;;;;22.25;13.70;;;;;;;;;;5049286;28;20055;-87
2023/12/17 11:52:11;;;;;;;19.88;12.02;;;;;;;;;;5066028;28;20044;-88
2023/12/17 11:54:37;;;;;;;27.17;17.45;;;;;;;;;;5052114;28;20110;-79
2023/12/17 11:57:03;;;;;;;26.85;15.38;;;;;;;;;;5032242;28;20097;-87
2023/12/17 11:59:33;;;;;;;19.58;12.68;;;;;;;;;;5033372;28;20044;-79
2023/12/17 12:02:03;;;;;;;18.40;13.05;;;;;;;;;;5048106;28;20540;-83
2023/12/17 12:04:38;;;;;;;17.63;12.13;;;;;;;;;;5049064;28;20040;-87
2023/12/17 12:07:04;;;;;;;21.80;14.38;;;;;;;;;;5082147;28;20047;-85
2023/12/17 12:09:30;;;;;;;19.55;12.75;;;;;;;;;;5051612;28;20043;-87
2023/12/17 12:11:56;;;;;;;24.05;12.18;;;;;;;;;;5052674;28;20091;-85
2023/12/17 12:14:23;;;;;;;18.50;10.98;;;;;;;;;;5048858;28;20129;-87
2023/12/17 12:16:49;;;;;;;15.40;10.02;;;;;;;;;;5063829;28;20044;-79
2023/12/17 12:19:15;;;;;;;20.10;12.73;;;;;;;;;;5056832;28;20503;-86
2023/12/17 12:21:41;;;;;;;16.52;9.52;;;;;;;;;;5036490;28;20076;-79
2023/12/17 12:24:11;;;;;;;20.98;13.20;;;;;;;;;;5063400;28;20051;-79
2023/12/17 12:26:38;;;;;;;17.90;11.90;;;;;;;;;;5050066;28;20047;-78
2023/12/17 12:29:08;;;;;;;22.83;14.20;;;;;;;;;;5067287;28;20040;-77
2023/12/17 12:31:34;;;;;;;17.85;10.13;;;;;;;;;;5017722;28;20052;-79
2023/12/17 12:34:01;;;;;;;19.90;12.15;;;;;;;;;;5061588;28;20044;-77
2023/12/17 12:36:41;;;;;;;16.48;11.02;;;;;;;;;;5048323;28;20488;-77
2023/12/17 12:39:07;;;;;;;16.65;11.13;;;;;;;;;;5046906;28;20448;-77
2023/12/17 12:41:33;;;;;;;16.75;11.95;;;;;;;;;;5048145;28;20047;-78
2023/12/17 12:44:00;;;;;;;15.95;10.27;;;;;;;;;;5033873;28;20044;-78
2023/12/17 12:46:26;;;;;;;14.75;10.02;;;;;;;;;;5049993;28;20069;-78
2023/12/17 12:48:55;;;;;;;14.85;10.65;;;;;;;;;;5037653;28;20040;-77
2023/12/17 12:51:21;;;;;;;28.55;10.95;;;;;;;;;;5035276;28;20044;-75
2023/12/17 12:53:47;;;;;;;20.42;12.48;;;;;;;;;;5056457;28;20047;-77
2023/12/17 12:56:13;;;;;;;15.50;9.60;;;;;;;;;;5030775;28;20033;-76
2023/12/17 12:58:40;;;;;;;21.25;13.60;;;;;;;;;;5060776;28;20151;-76
2023/12/17 13:01:06;;;;;;;17.88;12.27;;;;;;;;;;5050865;28;20475;-76
2023/12/17 13:03:32;;;;;;;19.67;12.88;;;;;;;;;;5067812;28;20053;-77
2023/12/17 13:05:59;;;;;;;18.38;11.93;;;;;;;;;;5035075;28;20052;-76
2023/12/17 13:08:25;;;;;;;24.48;12.85;;;;;;;;;;5031581;28;20634;-77
2023/12/17 13:10:52;;;;;;;14.85;10.07;;;;;;;;;;5047467;28;20080;-76
2023/12/17 13:13:19;;;;;;;15.48;12.13;;;;;;;;;;5060945;28;20037;-77
2023/12/17 13:15:45;;;;;;;19.92;13.50;;;;;;;;;;5057077;28;20513;-76
2023/12/17 13:18:11;;;;;;;20.55;13.75;;;;;;;;;;5039685;28;20041;-78
2023/12/17 13:20:37;;;;;;;14.10;10.10;;;;;;;;;;5011971;28;20033;-78
2023/12/17 13:23:03;;;;;;;21.15;13.60;;;;;;;;;;5032535;28;20041;-78
2023/12/17 13:25:30;;;;;;;19.90;12.68;;;;;;;;;;5041017;28;20036;-77
2023/12/17 13:27:59;;;;;;;22.90;14.13;;;;;;;;;;5031857;28;20036;-77
2023/12/17 13:30:26;;;;;;;16.40;10.48;;;;;;;;;;5030332;28;20048;-77
2023/12/17 13:32:52;;;;;;;14.90;11.48;;;;;;;;;;5074970;28;20056;-76
2023/12/17 13:35:19;;;;;;;20.60;13.10;;;;;;;;;;5045132;28;20059;-82
2023/12/17 13:37:45;;;;;;;20.77;11.98;;;;;;;;;;5062588;28;21365;-83
2023/12/17 13:40:16;;;;;;;17.17;11.20;;;;;;;;;;5080806;28;20040;-85
2023/12/17 13:42:42;;;;;;;19.77;10.57;;;;;;;;;;5030820;28;20048;-86
2023/12/17 13:45:08;;;;;;;22.23;11.57;;;;;;;;;;5064979;28;20045;-84
2023/12/17 13:47:35;;;;;;;20.60;13.10;;;;;;;;;;5045175;28;20095;-84
2023/12/17 13:50:02;;;;;;;19.10;12.00;;;;;;;;;;5061651;28;20048;-85
2023/12/17 13:52:28;;;;;;;18.10;12.27;;;;;;;;;;5043770;28;20509;-82
2023/12/17 13:54:54;;;;;;;17.23;11.82;;;;;;;;;;5059980;28;20044;-85
2023/12/17 13:57:23;;;;;;;15.40;11.00;;;;;;;;;;5046488;28;20129;-86
2023/12/17 13:59:49;;;;;;;13.63;8.65;;;;;;;;;;5061395;28;20131;-84
2023/12/17 14:02:15;;;;;;;16.23;10.77;;;;;;;;;;5030065;28;20163;-86
2023/12/17 14:04:42;;;;;;;19.08;10.60;;;;;;;;;;5060384;28;20048;-86
2023/12/17 14:07:08;;;;;;;12.65;7.45;;;;;;;;;;5066239;28;20048;-80
2023/12/17 14:09:35;;;;;;;14.55;10.70;;;;;;;;;;5048040;28;20037;-86
2023/12/17 14:12:01;;;;;;;11.95;8.90;;;;;;;;;;5062315;28;20060;-79
2023/12/17 14:14:29;;;;;;;17.95;11.02;;;;;;;;;;5050593;28;20043;-87
2023/12/17 14:16:55;;;;;;;15.27;9.63;;;;;;;;;;5055690;28;20499;-84
2023/12/17 14:19:22;;;;;;;21.90;11.32;;;;;;;;;;5067992;28;20041;-81
2023/12/17 14:21:48;;;;;;;13.27;9.18;;;;;;;;;;5082601;28;20093;-82